Terminal Aerodrome Forecast
Issued by NWS

Home | Current Version | Previous Version | Text Only | Print | Product List | Glossary On
Versions: 1 2 3 4 5 6 7 8 9 10 11 12 13 14 15 16 17 18 19 20 21 22 23 24
000
FTUS46 KMTR 272100 AAA
TAFSFO
TAF AMD
KSFO 272109Z 2721/2824 28015G22KT P6SM FEW010
     FM272200 28022G30KT P6SM FEW010
      TEMPO 2801/2803 BKN010
     FM280300 28020G28KT P6SM OVC008
     FM280700 28012G18KT P6SM OVC007
     FM281300 28010KT P6SM OVC006
     FM281800 28010KT P6SM SCT010=

USA.gov is the U.S. government's official web portal to all federal, state and local government web resources and services.